KSRQ/SRQ METAR and TAF weather

Enter ICAO airport designator
Station Type Date Time Source
KSRQ METAR 2022/11/26 07:53 UTC NOAA

KSRQ 260753Z AUTO 00000KT 1/4SM FG VV002 22/21 A3002 RMK AO2 SLP165 T02170211 $


Station Type Date Time Source
KSRQ Decoded METAR 2022/11/26 07:53 UTC NOAA

SARASOTA/BRADENTON INTERNATIONAL ., FL, United States (KSRQ) 27-24N 082-33W 18M
Nov 26, 2022 - 02:53 AM EST / 2022.11.26 0753 UTC
Wind: Calm:0
Visibility: 1/4 mile(s):0
Sky conditions: obscured
Weather: fog
Temperature: 71.1 F (21.7 C)
Dew Point: 70.0 F (21.1 C)
Relative Humidity: 96%
Pressure (altimeter): 30.02 in. Hg (1016 hPa)
ob: KSRQ 260753Z AUTO 00000KT 1/4SM FG VV002 22/21 A3002 RMK AO2 SLP165 T02170211
cycle: 8

Station Type Date Time Source
KSRQ TAF 2022/11/26 07:18 UTC NOAA

TAF
AMD KSRQ 260715Z 2607/2706 VRB03KT 1SM BR OVC004
TEMPO 2607/2609 1/4SM FG OVC002
FM260900 VRB03KT 1SM BR OVC002
TEMPO 2609/2613 1/4SM FG
FM261400 14008KT P6SM SCT008 BKN015
TEMPO 2614/2615 3SM BR BKN008
FM261700 22009KT P6SM SCT030 SCT250

Example: see airport list